Time;durP1;ratioP1;P1;durP2;ratioP2;P2;SDS_P1;SDS_P2;PMS_P1;PMS_P2;Temp;Humidity;BMP_temperature;BMP_pressure;BME280_temperature;BME280_humidity;BME280_pressure;Samples;Min_cycle;Max_cycle;Signal;HPM_P1;HPM_P2
2021/08/08 09:59:17;;;;;;;;;;;;;;;;;;2146330;54;1958;-90
2021/08/08 10:01:43;;;;;;;;;;;;;;;;;;2143289;59;1442;-89
2021/08/08 10:04:08;;;;;;;;;;;;;;;;;;2142716;59;1020;-89
2021/08/08 10:06:34;;;;;;;;;;;;;;;;;;2138683;67;1452;-89
2021/08/08 10:09:00;;;;;;;;;;;;;;;;;;2140436;59;1309;-88
2021/08/08 10:11:26;;;;;;;;;;;;;;;;;;2143346;67;1206;-89
2021/08/08 10:13:57;;;;;;;;;;;;;;;;;;2140520;67;1317;-89
2021/08/08 10:16:23;;;;;;;;;;;;;;;;;;2139317;67;1989;-88
2021/08/08 10:18:54;;;;;;;;;;;;;;;;;;2139797;67;1339;-88
2021/08/08 10:21:19;;;;;;;;;;;;;;;;;;2145757;59;1064;-91
2021/08/08 10:23:46;;;;;;;;;;;;;;;;;;2144278;67;1050;-89
2021/08/08 10:26:13;;;;;;;;;;;;;;;;;;2138856;67;1359;-91
2021/08/08 10:28:38;;;;;;;;;;;;;;;;;;2144995;59;1344;-89
2021/08/08 10:31:04;;;;;;;;;;;;;;;;;;2141183;67;1073;-90
2021/08/08 10:33:30;;;;;;;;;;;;;;;;;;2142304;59;1227;-91
2021/08/08 10:35:55;;;;;;;;;;;;;;;;;;2140188;67;1993;-90
2021/08/08 10:38:21;;;;;;;;;;;;;;;;;;2147739;66;1357;-89
2021/08/08 10:40:47;;;;;;;;;;;;;;;;;;2137888;67;1356;-88
2021/08/08 10:43:23;;;;;;;;;;;;;;;;;;2139386;67;2573;-89
2021/08/08 10:45:49;;;;;;;;;;;;;;;;;;2146941;59;1338;-89
2021/08/08 10:48:14;;;;;;;;;;;;;;;;;;2142250;67;1325;-90
2021/08/08 10:50:47;;;;;;;;;;;;;;;;;;2143176;67;1270;-89
2021/08/08 10:53:21;;;;;;;;;;;;;;;;;;2143976;67;1005;-90
2021/08/08 10:55:48;;;;;;;;;;;;;;;;;;2142812;59;1979;-89
2021/08/08 10:58:15;;;;;;;;;;;;;;;;;;2140196;59;1230;-90
2021/08/08 11:00:41;;;;;;;;;;;;;;;;;;2142339;59;1208;-89
2021/08/08 11:03:10;;;;;;;;;;;;;;;;;;2139061;67;1214;-89
2021/08/08 11:05:35;;;;;;;;;;;;;;;;;;2142067;67;1358;-87
2021/08/08 11:08:01;;;;;;;;;;;;;;;;;;2142548;59;1102;-87
2021/08/08 11:10:27;;;;;;;;;;;;;;;;;;2140743;67;1352;-86
2021/08/08 11:12:52;;;;;;;;;;;;;;;;;;2138934;59;1223;-86
2021/08/08 11:15:18;;;;;;;;;;;;;;;;;;2142267;59;1937;-88
2021/08/08 11:17:45;;;;;;;;;;;;;;;;;;2145489;67;1264;-86
2021/08/08 11:20:11;;;;;;;;;;;;;;;;;;2144123;59;1108;-87
2021/08/08 11:22:36;;;;;;;;;;;;;;;;;;2146057;59;1155;-88
2021/08/08 11:25:05;;;;;;;;;;;;;;;;;;2141372;59;1326;-90
2021/08/08 11:27:35;;;;;;;;;;;;;;;;;;2139150;67;1209;-89
2021/08/08 11:30:01;;;;;;;;;;;;;;;;;;2141731;59;1258;-90
2021/08/08 11:32:27;;;;;;;;;;;;;;;;;;2145873;59;983;-89
2021/08/08 11:35:03;;;;;;;;;;;;;;;;;;2144974;59;1312;-89
2021/08/08 11:37:32;;;;;;;;;;;;;;;;;;2143870;59;1063;-87
2021/08/08 11:39:57;;;;;;;;;;;;;;;;;;2142410;59;1597;-89
2021/08/08 11:42:29;;;;;;;;;;;;;;;;;;2143132;59;2284;-88
2021/08/08 11:44:54;;;;;;;;;;;;;;;;;;2146247;59;1340;-88
2021/08/08 11:47:23;;;;;;;;;;;;;;;;;;2140213;67;1297;-89
2021/08/08 11:49:48;;;;;;;;;;;;;;;;;;2144303;67;1124;-88
2021/08/08 11:52:17;;;;;;;;;;;;;;;;;;2140356;59;1230;-88
2021/08/08 11:54:44;;;;;;;;;;;;;;;;;;2140674;67;1315;-86
2021/08/08 11:57:12;;;;;;;;;;;;;;;;;;2140236;59;1935;-88
2021/08/08 11:59:38;;;;;;;;;;;;;;;;;;2138367;67;1336;-88
2021/08/08 12:02:07;;;;;;;;;;;;;;;;;;2141386;67;1092;-91
2021/08/08 12:04:33;;;;;;;;;;;;;;;;;;2142557;67;1518;-88
2021/08/08 12:06:59;;;;;;;;;;;;;;;;;;2142405;59;1097;-89
2021/08/08 12:09:24;;;;;;;;;;;;;;;;;;2144918;67;1304;-88
2021/08/08 12:11:54;;;;;;;;;;;;;;;;;;2146007;59;1202;-90
2021/08/08 12:14:29;;;;;;;;;;;;;;;;;;2143139;67;1238;-91
2021/08/08 12:16:59;;;;;;;;;;;;;;;;;;2139842;59;1984;-90
2021/08/08 12:19:27;;;;;;;;;;;;;;;;;;2142051;67;1581;-89
2021/08/08 12:21:59;;;;;;;;;;;;;;;;;;2143415;59;1055;-90
2021/08/08 12:24:30;;;;;;;;;;;;;;;;;;2139073;59;1347;-88
2021/08/08 12:26:56;;;;;;;;;;;;;;;;;;2143340;67;1037;-89
2021/08/08 12:29:28;;;;;;;;;;;;;;;;;;2145165;59;1208;-88
2021/08/08 12:32:03;;;;;;;;;;;;;;;;;;2141522;59;2138;-88
2021/08/08 12:34:29;;;;;;;;;;;;;;;;;;2139993;67;1344;-88
2021/08/08 12:37:01;;;;;;;;;;;;;;;;;;2139542;67;1996;-89
2021/08/08 12:39:27;;;;;;;;;;;;;;;;;;2142637;59;1156;-88
2021/08/08 12:41:52;;;;;;;;;;;;;;;;;;2143481;59;1143;-89
2021/08/08 12:44:29;;;;;;;;;;;;;;;;;;2139669;67;1348;-90
2021/08/08 12:46:58;;;;;;;;;;;;;;;;;;2143969;67;1097;-88
2021/08/08 12:49:31;;;;;;;;;;;;;;;;;;2143536;59;1730;-90
2021/08/08 12:51:56;;;;;;;;;;;;;;;;;;2144833;67;1125;-89
2021/08/08 12:54:22;;;;;;;;;;;;;;;;;;2143527;59;1415;-90
2021/08/08 12:56:47;;;;;;;;;;;;;;;;;;2140086;67;1927;-89
2021/08/08 12:59:13;;;;;;;;;;;;;;;;;;2140363;59;1300;-89
2021/08/08 13:01:41;;;;;;;;;;;;;;;;;;2139361;67;1316;-88
2021/08/08 13:04:08;;;;;;;;;;;;;;;;;;2139553;67;1278;-88
2021/08/08 13:06:33;;;;;;;;;;;;;;;;;;2139490;67;1449;-90
2021/08/08 13:09:02;;;;;;;;;;;;;;;;;;2143623;59;1349;-90
2021/08/08 13:11:31;;;;;;;;;;;;;;;;;;2140457;67;1331;-88
2021/08/08 13:13:57;;;;;;;;;;;;;;;;;;2140432;67;1311;-89
2021/08/08 13:16:24;;;;;;;;;;;;;;;;;;2140656;67;1917;-90
2021/08/08 13:18:49;;;;;;;;;;;;;;;;;;2140129;67;1320;-89
2021/08/08 13:21:16;;;;;;;;;;;;;;;;;;2140812;67;1401;-89
2021/08/08 13:23:42;;;;;;;;;;;;;;;;;;2141259;67;1348;-88
2021/08/08 13:26:08;;;;;;;;;;;;;;;;;;2140490;59;1365;-90
2021/08/08 13:28:33;;;;;;;;;;;;;;;;;;2143456;59;910;-89
2021/08/08 13:30:59;;;;;;;;;;;;;;;;;;2148923;59;1061;-89
2021/08/08 13:33:24;;;;;;;;;;;;;;;;;;2142017;67;1380;-90
2021/08/08 13:35:49;;;;;;;;;;;;;;;;;;2139717;67;1940;-88
2021/08/08 13:38:15;;;;;;;;;;;;;;;;;;2143011;59;1117;-90
2021/08/08 13:40:41;;;;;;;;;;;;;;;;;;2139202;59;1379;-89
2021/08/08 13:43:07;;;;;;;;;;;;;;;;;;2143521;59;1095;-89
2021/08/08 13:45:32;;;;;;;;;;;;;;;;;;2144914;59;1315;-90
2021/08/08 13:47:58;;;;;;;;;;;;;;;;;;2144688;67;1301;-89
2021/08/08 13:50:23;;;;;;;;;;;;;;;;;;2144714;67;1304;-89
2021/08/08 13:52:48;;;;;;;;;;;;;;;;;;2143824;59;1113;-89
2021/08/08 13:55:19;;;;;;;;;;;;;;;;;;2146174;67;1930;-91
2021/08/08 13:57:46;;;;;;;;;;;;;;;;;;2140593;67;1240;-89
2021/08/08 14:00:11;;;;;;;;;;;;;;;;;;2140709;59;1130;-91
2021/08/08 14:02:39;;;;;;;;;;;;;;;;;;2140355;67;1292;-88
2021/08/08 14:05:05;;;;;;;;;;;;;;;;;;2143800;59;1259;-90
2021/08/08 14:07:30;;;;;;;;;;;;;;;;;;2150923;59;1322;-89
2021/08/08 14:09:56;;;;;;;;;;;;;;;;;;2143666;67;1379;-90
2021/08/08 14:12:21;;;;;;;;;;;;;;;;;;2143413;59;1339;-90
2021/08/08 14:14:52;;;;;;;;;;;;;;;;;;2143608;59;1292;-91
2021/08/08 14:17:17;;;;;;;;;;;;;;;;;;2143418;67;1928;-89
2021/08/08 14:19:53;;;;;;;;;;;;;;;;;;2143263;67;1293;-90
2021/08/08 14:22:21;;;;;;;;;;;;;;;;;;2143484;59;1318;-90
2021/08/08 14:24:46;;;;;;;;;;;;;;;;;;2143210;59;1497;-90
2021/08/08 14:27:12;;;;;;;;;;;;;;;;;;2143773;67;1322;-91
2021/08/08 14:29:44;;;;;;;;;;;;;;;;;;2144104;67;1374;-90
2021/08/08 14:32:10;;;;;;;;;;;;;;;;;;2144374;59;1470;-90
2021/08/08 14:34:35;;;;;;;;;;;;;;;;;;2144321;59;1388;-91
2021/08/08 14:37:01;;;;;;;;;;;;;;;;;;2141589;67;1904;-89
2021/08/08 14:39:26;;;;;;;;;;;;;;;;;;2145506;59;1468;-90
2021/08/08 14:41:52;;;;;;;;;;;;;;;;;;2142198;67;1027;-90
2021/08/08 14:44:17;;;;;;;;;;;;;;;;;;2145905;59;1379;-89
2021/08/08 14:46:42;;;;;;;;;;;;;;;;;;2145844;59;1192;-89
2021/08/08 14:49:08;;;;;;;;;;;;;;;;;;2148910;59;1406;-90
2021/08/08 14:51:33;;;;;;;;;;;;;;;;;;2147717;59;1074;-89
2021/08/08 14:54:02;;;;;;;;;;;;;;;;;;2146264;59;915;-91
2021/08/08 14:56:27;;;;;;;;;;;;;;;;;;2145269;67;1921;-88
2021/08/08 14:58:52;;;;;;;;;;;;;;;;;;2146484;59;1310;-88
2021/08/08 15:01:17;;;;;;;;;;;;;;;;;;2147851;67;1327;-90
2021/08/08 15:03:43;;;;;;;;;;;;;;;;;;2149244;66;1226;-88
2021/08/08 15:06:08;;;;;;;;;;;;;;;;;;2147235;67;1300;-88
2021/08/08 15:08:33;;;;;;;;;;;;;;;;;;2146095;59;1039;-87
2021/08/08 15:11:02;;;;;;;;;;;;;;;;;;2148449;59;990;-89
2021/08/08 15:13:27;;;;;;;;;;;;;;;;;;2146529;59;1235;-88
2021/08/08 15:15:53;;;;;;;;;;;;;;;;;;2143688;59;1929;-90
2021/08/08 15:18:18;;;;;;;;;;;;;;;;;;2141834;67;1435;-88
2021/08/08 15:20:44;;;;;;;;;;;;;;;;;;2142145;59;1243;-88
2021/08/08 15:23:09;;;;;;;;;;;;;;;;;;2147884;67;1289;-89
2021/08/08 15:25:34;;;;;;;;;;;;;;;;;;2145328;59;1324;-91
2021/08/08 15:28:01;;;;;;;;;;;;;;;;;;2142804;59;1215;-89
2021/08/08 15:30:26;;;;;;;;;;;;;;;;;;2144721;59;1244;-89
2021/08/08 15:32:51;;;;;;;;;;;;;;;;;;2149652;59;1057;-88
2021/08/08 15:35:18;;;;;;;;;;;;;;;;;;2149770;67;1950;-89
2021/08/08 15:37:50;;;;;;;;;;;;;;;;;;2144027;67;1419;-90
2021/08/08 15:40:17;;;;;;;;;;;;;;;;;;2143235;59;1399;-89
2021/08/08 15:42:42;;;;;;;;;;;;;;;;;;2144546;67;1301;-90
2021/08/08 15:45:09;;;;;;;;;;;;;;;;;;2148966;59;1305;-90
2021/08/08 15:47:34;;;;;;;;;;;;;;;;;;2147962;59;1171;-91
2021/08/08 15:50:00;;;;;;;;;;;;;;;;;;2143192;67;1265;-90
2021/08/08 15:52:25;;;;;;;;;;;;;;;;;;2146295;59;1419;-89
2021/08/08 15:54:54;;;;;;;;;;;;;;;;;;2143079;67;1408;-90
2021/08/08 15:57:20;;;;;;;;;;;;;;;;;;2143801;67;1905;-89
2021/08/08 15:59:47;;;;;;;;;;;;;;;;;;2144420;59;974;-89
2021/08/08 16:02:24;;;;;;;;;;;;;;;;;;2143873;67;1035;-88
2021/08/08 16:04:58;;;;;;;;;;;;;;;;;;2144608;67;1373;-89
2021/08/08 16:07:26;;;;;;;;;;;;;;;;;;2147769;67;1381;-90
2021/08/08 16:09:52;;;;;;;;;;;;;;;;;;2148772;67;958;-90
2021/08/08 16:12:17;;;;;;;;;;;;;;;;;;2143486;59;1266;-90
2021/08/08 16:14:43;;;;;;;;;;;;;;;;;;2143134;59;1297;-89
2021/08/08 16:17:08;;;;;;;;;;;;;;;;;;2143849;67;1965;-89
2021/08/08 16:19:33;;;;;;;;;;;;;;;;;;2152766;59;1282;-90
2021/08/08 16:22:01;;;;;;;;;;;;;;;;;;2150202;59;981;-91
2021/08/08 16:24:26;;;;;;;;;;;;;;;;;;2146992;59;1343;-90
2021/08/08 16:26:51;;;;;;;;;;;;;;;;;;2150295;59;946;-90
2021/08/08 16:29:16;;;;;;;;;;;;;;;;;;2149933;59;1290;-88
2021/08/08 16:31:41;;;;;;;;;;;;;;;;;;2145228;67;1252;-90
2021/08/08 16:34:08;;;;;;;;;;;;;;;;;;2150128;59;863;-90
2021/08/08 16:36:33;;;;;;;;;;;;;;;;;;2150101;59;1893;-88
2021/08/08 16:38:59;;;;;;;;;;;;;;;;;;2146884;67;1370;-89
2021/08/08 16:41:24;;;;;;;;;;;;;;;;;;2146615;67;1247;-90
2021/08/08 16:43:52;;;;;;;;;;;;;;;;;;2150851;59;967;-89
2021/08/08 16:46:18;;;;;;;;;;;;;;;;;;2145935;67;1320;-89
2021/08/08 16:48:44;;;;;;;;;;;;;;;;;;2145602;59;1262;-89
2021/08/08 16:51:09;;;;;;;;;;;;;;;;;;2151585;59;840;-89
2021/08/08 16:53:35;;;;;;;;;;;;;;;;;;2152065;59;1225;-89
2021/08/08 16:56:01;;;;;;;;;;;;;;;;;;2153406;59;1901;-89
2021/08/08 16:58:27;;;;;;;;;;;;;;;;;;2150672;67;1295;-90
2021/08/08 17:00:52;;;;;;;;;;;;;;;;;;2147060;67;1323;-88
2021/08/08 17:03:18;;;;;;;;;;;;;;;;;;2147267;67;1363;-87
2021/08/08 17:05:44;;;;;;;;;;;;;;;;;;2153305;59;1307;-89
2021/08/08 17:08:09;;;;;;;;;;;;;;;;;;2147630;59;1213;-90
2021/08/08 17:10:35;;;;;;;;;;;;;;;;;;2148728;59;970;-89
2021/08/08 17:13:00;;;;;;;;;;;;;;;;;;2142800;60;1346;-91
2021/08/08 17:15:25;;;;;;;;;;;;;;;;;;2147870;59;1936;-89
2021/08/08 17:17:51;;;;;;;;;;;;;;;;;;2147350;59;1293;-90
2021/08/08 17:20:16;;;;;;;;;;;;;;;;;;2142708;67;1376;-88
2021/08/08 17:22:42;;;;;;;;;;;;;;;;;;2142834;67;1298;-90
2021/08/08 17:25:08;;;;;;;;;;;;;;;;;;2145742;59;1276;-88
2021/08/08 17:27:36;;;;;;;;;;;;;;;;;;2146476;59;932;-89
2021/08/08 17:30:02;;;;;;;;;;;;;;;;;;2142219;67;1207;-91
2021/08/08 17:32:27;;;;;;;;;;;;;;;;;;2143208;67;1463;-90
2021/08/08 17:34:53;;;;;;;;;;;;;;;;;;2142324;67;1291;-90
2021/08/08 17:37:18;;;;;;;;;;;;;;;;;;2149104;59;1925;-90
2021/08/08 17:39:43;;;;;;;;;;;;;;;;;;2142896;59;1286;-90
2021/08/08 17:42:09;;;;;;;;;;;;;;;;;;2142594;59;1292;-91
2021/08/08 17:44:35;;;;;;;;;;;;;;;;;;2146039;59;1316;-90
2021/08/08 17:47:00;;;;;;;;;;;;;;;;;;2148894;59;1544;-90
2021/08/08 17:49:26;;;;;;;;;;;;;;;;;;2145629;59;1086;-90
2021/08/08 17:51:51;;;;;;;;;;;;;;;;;;2148508;67;1399;-89
2021/08/08 17:54:16;;;;;;;;;;;;;;;;;;2146576;59;1263;-91
2021/08/08 17:56:42;;;;;;;;;;;;;;;;;;2146604;59;1912;-90
2021/08/08 17:59:07;;;;;;;;;;;;;;;;;;2146419;59;1403;-89
2021/08/08 18:01:32;;;;;;;;;;;;;;;;;;2146570;59;1006;-89
2021/08/08 18:03:58;;;;;;;;;;;;;;;;;;2143442;67;1535;-91
2021/08/08 18:06:23;;;;;;;;;;;;;;;;;;2143261;67;1459;-88
2021/08/08 18:08:49;;;;;;;;;;;;;;;;;;2146678;59;1204;-90
2021/08/08 18:11:20;;;;;;;;;;;;;;;;;;2143796;59;1388;-90
2021/08/08 18:13:48;;;;;;;;;;;;;;;;;;2145059;67;1252;-89
2021/08/08 18:16:14;;;;;;;;;;;;;;;;;;2144739;67;1956;-91
2021/08/08 18:18:40;;;;;;;;;;;;;;;;;;2144587;67;1504;-91
2021/08/08 18:21:11;;;;;;;;;;;;;;;;;;2144418;67;1306;-89
2021/08/08 18:23:37;;;;;;;;;;;;;;;;;;2144199;67;1245;-89
2021/08/08 18:26:05;;;;;;;;;;;;;;;;;;2144411;67;1261;-91
2021/08/08 18:28:31;;;;;;;;;;;;;;;;;;2144525;67;1377;-88
2021/08/08 18:31:00;;;;;;;;;;;;;;;;;;2144492;67;1315;-91
2021/08/08 18:33:26;;;;;;;;;;;;;;;;;;2144697;67;1400;-89
2021/08/08 18:35:52;;;;;;;;;;;;;;;;;;2144864;59;1964;-91
2021/08/08 18:38:20;;;;;;;;;;;;;;;;;;2144937;67;1239;-88
2021/08/08 18:40:51;;;;;;;;;;;;;;;;;;2145372;67;1199;-89
2021/08/08 18:43:23;;;;;;;;;;;;;;;;;;2144454;60;1381;-89
2021/08/08 18:45:50;;;;;;;;;;;;;;;;;;2140812;67;1324;-88
2021/08/08 18:48:19;;;;;;;;;;;;;;;;;;2140913;67;1379;-89
2021/08/08 18:50:59;;;;;;;;;;;;;;;;;;2140810;67;1331;-88
2021/08/08 18:53:35;;;;;;;;;;;;;;;;;;2143296;67;1322;-89
2021/08/08 18:56:18;;;;;;;;;;;;;;;;;;2144651;59;1917;-90
2021/08/08 18:58:52;;;;;;;;;;;;;;;;;;2144229;67;1321;-90
2021/08/08 19:01:18;;;;;;;;;;;;;;;;;;2143837;59;1406;-90
2021/08/08 19:03:49;;;;;;;;;;;;;;;;;;2143057;59;1281;-89
2021/08/08 19:06:19;;;;;;;;;;;;;;;;;;2144074;67;1368;-90
2021/08/08 19:08:51;;;;;;;;;;;;;;;;;;2145287;67;1239;-89
2021/08/08 19:11:17;;;;;;;;;;;;;;;;;;2146701;59;1291;-91
2021/08/08 19:13:45;;;;;;;;;;;;;;;;;;2150340;67;1213;-90
2021/08/08 19:16:18;;;;;;;;;;;;;;;;;;2143704;67;1983;-90
2021/08/08 19:18:47;;;;;;;;;;;;;;;;;;2144280;67;1407;-90
2021/08/08 19:21:18;;;;;;;;;;;;;;;;;;2144251;67;1288;-90
2021/08/08 19:23:43;;;;;;;;;;;;;;;;;;2144377;67;1358;-89
2021/08/08 19:26:16;;;;;;;;;;;;;;;;;;2144215;67;1286;-89
2021/08/08 19:28:54;;;;;;;;;;;;;;;;;;2144560;67;1317;-89
2021/08/08 19:31:23;;;;;;;;;;;;;;;;;;2148096;67;1010;-91
2021/08/08 19:33:49;;;;;;;;;;;;;;;;;;2147666;67;1285;-88
2021/08/08 19:36:20;;;;;;;;;;;;;;;;;;2151030;59;1933;-89
2021/08/08 19:38:56;;;;;;;;;;;;;;;;;;2151675;66;1561;-89
2021/08/08 19:41:24;;;;;;;;;;;;;;;;;;2144839;67;1306;-89
2021/08/08 19:43:52;;;;;;;;;;;;;;;;;;2145835;67;1256;-90
2021/08/08 19:46:18;;;;;;;;;;;;;;;;;;2147255;59;1318;-90
2021/08/08 19:48:43;;;;;;;;;;;;;;;;;;2145881;59;1302;-89
2021/08/08 19:51:21;;;;;;;;;;;;;;;;;;2148415;67;1285;-90
2021/08/08 19:53:50;;;;;;;;;;;;;;;;;;2152234;66;1220;-90
2021/08/08 19:56:20;;;;;;;;;;;;;;;;;;2147875;67;1904;-89
2021/08/08 19:58:49;;;;;;;;;;;;;;;;;;2147766;67;1323;-89
2021/08/08 20:01:17;;;;;;;;;;;;;;;;;;2147762;59;1293;-89
2021/08/08 20:04:00;;;;;;;;;;;;;;;;;;2154237;66;1282;-89
2021/08/08 20:06:28;;;;;;;;;;;;;;;;;;2148047;67;1645;-91
2021/08/08 20:08:54;;;;;;;;;;;;;;;;;;2147981;67;1211;-90
2021/08/08 20:11:20;;;;;;;;;;;;;;;;;;2147947;67;1030;-89
2021/08/08 20:13:49;;;;;;;;;;;;;;;;;;2147970;67;1324;-91
2021/08/08 20:16:14;;;;;;;;;;;;;;;;;;2154425;59;1898;-90
2021/08/08 20:18:45;;;;;;;;;;;;;;;;;;2147874;67;899;-88
2021/08/08 20:21:12;;;;;;;;;;;;;;;;;;2147959;67;1307;-89
2021/08/08 20:23:37;;;;;;;;;;;;;;;;;;2147238;59;1349;-89
2021/08/08 20:26:04;;;;;;;;;;;;;;;;;;2147789;59;1284;-89
2021/08/08 20:28:30;;;;;;;;;;;;;;;;;;2147777;59;1400;-89
2021/08/08 20:30:59;;;;;;;;;;;;;;;;;;2147499;67;1589;-89
2021/08/08 20:33:47;;;;;;;;;;;;;;;;;;2147275;67;1319;-88
2021/08/08 20:36:13;;;;;;;;;;;;;;;;;;2150359;59;2029;-88
2021/08/08 20:38:43;;;;;;;;;;;;;;;;;;2143885;67;1458;-91
2021/08/08 20:41:09;;;;;;;;;;;;;;;;;;2147219;59;1266;-89
2021/08/08 20:43:40;;;;;;;;;;;;;;;;;;2151659;59;1355;-90
2021/08/08 20:46:06;;;;;;;;;;;;;;;;;;2151602;66;1236;-90
2021/08/08 20:48:32;;;;;;;;;;;;;;;;;;2151227;66;1260;-90
2021/08/08 20:50:57;;;;;;;;;;;;;;;;;;2151672;59;1397;-90
2021/08/08 20:53:23;;;;;;;;;;;;;;;;;;2151383;66;1340;-89
2021/08/08 20:55:53;;;;;;;;;;;;;;;;;;2151920;66;1968;-90
2021/08/08 20:58:21;;;;;;;;;;;;;;;;;;2151674;59;1384;-91
2021/08/08 21:00:47;;;;;;;;;;;;;;;;;;2152158;59;1348;-89
2021/08/08 21:03:14;;;;;;;;;;;;;;;;;;2151415;66;1423;-91
2021/08/08 21:05:45;;;;;;;;;;;;;;;;;;2151184;66;1324;-89
2021/08/08 21:08:12;;;;;;;;;;;;;;;;;;2151824;66;1237;-88
2021/08/08 21:10:38;;;;;;;;;;;;;;;;;;2152311;66;1303;-89
2021/08/08 21:13:09;;;;;;;;;;;;;;;;;;2146835;67;1027;-89
2021/08/08 21:15:35;;;;;;;;;;;;;;;;;;2148215;67;1991;-89
2021/08/08 21:18:01;;;;;;;;;;;;;;;;;;2147987;67;1021;-89
2021/08/08 21:20:31;;;;;;;;;;;;;;;;;;2147970;59;1333;-90
2021/08/08 21:22:57;;;;;;;;;;;;;;;;;;2148433;67;891;-91
2021/08/08 21:25:44;;;;;;;;;;;;;;;;;;;;;
2021/08/08 21:28:12;;;;;;;;;;;;;;;;;;2151146;67;1269;-89
2021/08/08 21:30:44;;;;;;;;;;;;;;;;;;2147626;67;1358;-90
2021/08/08 21:33:20;;;;;;;;;;;;;;;;;;2147526;67;1358;-89
2021/08/08 21:35:45;;;;;;;;;;;;;;;;;;2147986;67;1937;-89
2021/08/08 21:38:14;;;;;;;;;;;;;;;;;;2147937;67;954;-90
2021/08/08 21:40:39;;;;;;;;;;;;;;;;;;2148114;67;904;-90
2021/08/08 21:43:11;;;;;;;;;;;;;;;;;;2148853;67;1244;-89
2021/08/08 21:45:37;;;;;;;;;;;;;;;;;;2147646;67;1300;-90
2021/08/08 21:48:03;;;;;;;;;;;;;;;;;;2147417;59;1421;-91
2021/08/08 21:50:28;;;;;;;;;;;;;;;;;;2147166;67;1350;-90
2021/08/08 21:52:56;;;;;;;;;;;;;;;;;;2150580;67;1317;-91
2021/08/08 21:55:21;;;;;;;;;;;;;;;;;;2150470;67;1961;-89
2021/08/08 21:57:49;;;;;;;;;;;;;;;;;;2150561;59;1343;-90
2021/08/08 22:00:17;;;;;;;;;;;;;;;;;;2150898;59;1245;-90
2021/08/08 22:02:43;;;;;;;;;;;;;;;;;;2150212;67;1367;-91
2021/08/08 22:05:09;;;;;;;;;;;;;;;;;;2151772;59;1372;-90
2021/08/08 22:07:38;;;;;;;;;;;;;;;;;;2152242;66;1297;-90
2021/08/08 22:10:06;;;;;;;;;;;;;;;;;;2152277;66;1404;-89
2021/08/08 22:12:32;;;;;;;;;;;;;;;;;;2151882;66;1112;-89
2021/08/08 22:14:57;;;;;;;;;;;;;;;;;;2151913;59;1257;-90
2021/08/08 22:17:32;;;;;;;;;;;;;;;;;;2151933;59;1894;-90
2021/08/08 22:20:00;;;;;;;;;;;;;;;;;;2148005;67;1270;-89
2021/08/08 22:22:26;;;;;;;;;;;;;;;;;;2147941;67;1354;-89
2021/08/08 22:25:22;;;;;;;;;;;;;;;;;;;;;
2021/08/08 22:27:40;;;;;;;;;;;;;;;;;;2150820;67;1380;-88
2021/08/08 22:30:12;;;;;;;;;;;;;;;;;;2147561;67;1239;-88
2021/08/08 22:32:56;;;;;;;;;;;;;;;;;;2147639;59;1362;-89
2021/08/08 22:35:36;;;;;;;;;;;;;;;;;;2150580;67;1300;-88
2021/08/08 22:38:04;;;;;;;;;;;;;;;;;;2147825;67;1309;-88
2021/08/08 22:40:32;;;;;;;;;;;;;;;;;;2148022;67;963;-89
2021/08/08 22:43:17;;;;;;;;;;;;;;;;;;2147934;67;888;-92
2021/08/08 22:45:57;;;;;;;;;;;;;;;;;;2148399;59;1453;-88
2021/08/08 22:48:29;;;;;;;;;;;;;;;;;;2148014;67;1306;-88
2021/08/08 22:50:54;;;;;;;;;;;;;;;;;;2147286;67;1550;-90
2021/08/08 22:53:20;;;;;;;;;;;;;;;;;;2148297;67;1203;-90
2021/08/08 22:55:50;;;;;;;;;;;;;;;;;;2147788;67;1919;-90
2021/08/08 22:58:18;;;;;;;;;;;;;;;;;;2147544;67;1271;-89
2021/08/08 23:00:47;;;;;;;;;;;;;;;;;;2147885;59;1398;-89
2021/08/08 23:03:18;;;;;;;;;;;;;;;;;;2147676;59;1375;-89
2021/08/08 23:05:43;;;;;;;;;;;;;;;;;;2147505;67;1323;-92
2021/08/08 23:08:09;;;;;;;;;;;;;;;;;;2147841;60;1277;-89
2021/08/08 23:10:47;;;;;;;;;;;;;;;;;;;;;
2021/08/08 23:13:15;;;;;;;;;;;;;;;;;;2151640;59;757;-89
2021/08/08 23:15:41;;;;;;;;;;;;;;;;;;2147576;67;1907;-88
2021/08/08 23:18:07;;;;;;;;;;;;;;;;;;2147620;67;1302;-91
2021/08/08 23:20:35;;;;;;;;;;;;;;;;;;2147465;67;1350;-90
2021/08/08 23:23:10;;;;;;;;;;;;;;;;;;2147373;67;1413;-88
2021/08/08 23:25:41;;;;;;;;;;;;;;;;;;2147622;67;1305;-88
2021/08/08 23:28:09;;;;;;;;;;;;;;;;;;2147636;67;1235;-89
2021/08/08 23:30:35;;;;;;;;;;;;;;;;;;2147787;67;1042;-89
2021/08/08 23:33:08;;;;;;;;;;;;;;;;;;2153693;59;1353;-90
2021/08/08 23:35:36;;;;;;;;;;;;;;;;;;2146986;67;1975;-89
2021/08/08 23:38:07;;;;;;;;;;;;;;;;;;2153284;59;1466;-88
2021/08/08 23:40:33;;;;;;;;;;;;;;;;;;2147682;67;1189;-90
2021/08/08 23:43:04;;;;;;;;;;;;;;;;;;2148042;67;1392;-89
2021/08/08 23:45:29;;;;;;;;;;;;;;;;;;2147647;67;1308;-89
2021/08/08 23:47:56;;;;;;;;;;;;;;;;;;2147197;67;1326;-90
2021/08/08 23:50:31;;;;;;;;;;;;;;;;;;2151123;66;1232;-90
2021/08/08 23:52:56;;;;;;;;;;;;;;;;;;2150872;66;1288;-91
2021/08/08 23:55:22;;;;;;;;;;;;;;;;;;2151077;66;1343;-90
2021/08/08 23:57:49;;;;;;;;;;;;;;;;;;2151057;66;1923;-91
